sensor_id;sensor_type;location;lat;lon;timestamp;P1;durP1;ratioP1;P2;durP2;ratioP2
12356;SDS011;6243;51.244;6.774;2023-03-02T00:01:19;8.10;;;6.23;;
12356;SDS011;6243;51.244;6.774;2023-03-02T00:03:47;7.40;;;5.60;;
12356;SDS011;6243;51.244;6.774;2023-03-02T00:06:13;7.27;;;5.77;;
12356;SDS011;6243;51.244;6.774;2023-03-02T00:08:40;6.33;;;5.23;;
12356;SDS011;6243;51.244;6.774;2023-03-02T00:11:05;8.17;;;5.63;;
12356;SDS011;6243;51.244;6.774;2023-03-02T00:13:31;8.13;;;5.97;;
12356;SDS011;6243;51.244;6.774;2023-03-02T00:15:59;7.40;;;5.87;;
12356;SDS011;6243;51.244;6.774;2023-03-02T00:18:25;8.63;;;6.17;;
12356;SDS011;6243;51.244;6.774;2023-03-02T00:20:50;7.83;;;5.80;;
12356;SDS011;6243;51.244;6.774;2023-03-02T00:23:15;8.47;;;6.37;;
12356;SDS011;6243;51.244;6.774;2023-03-02T00:25:42;8.10;;;5.87;;
12356;SDS011;6243;51.244;6.774;2023-03-02T00:28:08;9.27;;;5.57;;
12356;SDS011;6243;51.244;6.774;2023-03-02T00:30:33;9.70;;;6.13;;
12356;SDS011;6243;51.244;6.774;2023-03-02T00:32:59;8.03;;;5.60;;
12356;SDS011;6243;51.244;6.774;2023-03-02T00:35:24;7.83;;;6.30;;
12356;SDS011;6243;51.244;6.774;2023-03-02T00:37:50;7.53;;;5.97;;
12356;SDS011;6243;51.244;6.774;2023-03-02T00:40:15;8.57;;;5.67;;
12356;SDS011;6243;51.244;6.774;2023-03-02T00:42:42;8.07;;;6.20;;
12356;SDS011;6243;51.244;6.774;2023-03-02T00:45:08;12.17;;;6.10;;
12356;SDS011;6243;51.244;6.774;2023-03-02T00:47:35;10.77;;;5.80;;
12356;SDS011;6243;51.244;6.774;2023-03-02T00:50:01;6.83;;;6.13;;
12356;SDS011;6243;51.244;6.774;2023-03-02T00:52:28;7.33;;;5.90;;
12356;SDS011;6243;51.244;6.774;2023-03-02T00:54:54;10.23;;;6.60;;
12356;SDS011;6243;51.244;6.774;2023-03-02T00:57:19;8.07;;;6.03;;
12356;SDS011;6243;51.244;6.774;2023-03-02T00:59:46;7.27;;;5.67;;
12356;SDS011;6243;51.244;6.774;2023-03-02T01:02:11;7.17;;;5.37;;
12356;SDS011;6243;51.244;6.774;2023-03-02T01:04:37;8.33;;;5.87;;
12356;SDS011;6243;51.244;6.774;2023-03-02T01:07:05;9.50;;;6.43;;
12356;SDS011;6243;51.244;6.774;2023-03-02T01:09:32;8.57;;;6.27;;
12356;SDS011;6243;51.244;6.774;2023-03-02T01:11:58;8.60;;;5.97;;
12356;SDS011;6243;51.244;6.774;2023-03-02T01:14:24;7.93;;;5.80;;
12356;SDS011;6243;51.244;6.774;2023-03-02T01:16:51;8.67;;;5.77;;
12356;SDS011;6243;51.244;6.774;2023-03-02T01:19:17;8.13;;;6.27;;
12356;SDS011;6243;51.244;6.774;2023-03-02T01:21:43;7.63;;;6.00;;
12356;SDS011;6243;51.244;6.774;2023-03-02T01:24:09;8.63;;;6.60;;
12356;SDS011;6243;51.244;6.774;2023-03-02T01:26:35;8.70;;;5.30;;
12356;SDS011;6243;51.244;6.774;2023-03-02T01:29:01;7.50;;;5.37;;
12356;SDS011;6243;51.244;6.774;2023-03-02T01:31:26;8.17;;;5.97;;
12356;SDS011;6243;51.244;6.774;2023-03-02T01:33:54;8.60;;;5.57;;
12356;SDS011;6243;51.244;6.774;2023-03-02T01:36:20;8.90;;;6.53;;
12356;SDS011;6243;51.244;6.774;2023-03-02T01:38:46;7.80;;;6.10;;
12356;SDS011;6243;51.244;6.774;2023-03-02T01:41:11;10.00;;;7.03;;
12356;SDS011;6243;51.244;6.774;2023-03-02T01:43:37;7.97;;;5.87;;
12356;SDS011;6243;51.244;6.774;2023-03-02T01:46:04;8.40;;;5.90;;
12356;SDS011;6243;51.244;6.774;2023-03-02T01:48:33;10.90;;;6.77;;
12356;SDS011;6243;51.244;6.774;2023-03-02T01:51:03;7.27;;;5.87;;
12356;SDS011;6243;51.244;6.774;2023-03-02T01:53:31;9.67;;;6.63;;
12356;SDS011;6243;51.244;6.774;2023-03-02T01:55:58;8.37;;;6.03;;
12356;SDS011;6243;51.244;6.774;2023-03-02T01:58:24;7.73;;;6.30;;
12356;SDS011;6243;51.244;6.774;2023-03-02T02:00:51;8.37;;;5.97;;
12356;SDS011;6243;51.244;6.774;2023-03-02T02:03:21;7.07;;;5.53;;
12356;SDS011;6243;51.244;6.774;2023-03-02T02:05:51;7.93;;;5.43;;
12356;SDS011;6243;51.244;6.774;2023-03-02T02:08:25;7.80;;;5.90;;
12356;SDS011;6243;51.244;6.774;2023-03-02T02:10:52;7.87;;;5.83;;
12356;SDS011;6243;51.244;6.774;2023-03-02T02:13:19;6.97;;;5.80;;
12356;SDS011;6243;51.244;6.774;2023-03-02T02:15:44;7.87;;;5.60;;
12356;SDS011;6243;51.244;6.774;2023-03-02T02:18:10;7.97;;;6.10;;
12356;SDS011;6243;51.244;6.774;2023-03-02T02:20:36;8.30;;;5.80;;
12356;SDS011;6243;51.244;6.774;2023-03-02T02:23:09;7.60;;;5.57;;
12356;SDS011;6243;51.244;6.774;2023-03-02T02:28:33;9.00;;;5.67;;
12356;SDS011;6243;51.244;6.774;2023-03-02T02:31:04;9.20;;;6.33;;
12356;SDS011;6243;51.244;6.774;2023-03-02T02:33:33;9.13;;;6.13;;
12356;SDS011;6243;51.244;6.774;2023-03-02T02:36:02;7.73;;;6.23;;
12356;SDS011;6243;51.244;6.774;2023-03-02T02:38:31;10.63;;;6.77;;
12356;SDS011;6243;51.244;6.774;2023-03-02T02:40:59;8.30;;;5.87;;
12356;SDS011;6243;51.244;6.774;2023-03-02T02:43:28;7.77;;;5.93;;
12356;SDS011;6243;51.244;6.774;2023-03-02T02:45:56;7.40;;;5.73;;
12356;SDS011;6243;51.244;6.774;2023-03-02T02:48:23;9.00;;;6.43;;
12356;SDS011;6243;51.244;6.774;2023-03-02T02:50:51;7.90;;;5.90;;
12356;SDS011;6243;51.244;6.774;2023-03-02T02:53:18;7.53;;;5.90;;
12356;SDS011;6243;51.244;6.774;2023-03-02T02:55:46;8.30;;;5.53;;
12356;SDS011;6243;51.244;6.774;2023-03-02T02:58:19;9.03;;;6.83;;
12356;SDS011;6243;51.244;6.774;2023-03-02T03:00:52;9.80;;;6.90;;
12356;SDS011;6243;51.244;6.774;2023-03-02T03:03:23;8.00;;;5.83;;
12356;SDS011;6243;51.244;6.774;2023-03-02T03:05:50;9.47;;;6.53;;
12356;SDS011;6243;51.244;6.774;2023-03-02T03:11:14;9.33;;;6.00;;
12356;SDS011;6243;51.244;6.774;2023-03-02T03:13:42;7.27;;;5.90;;
12356;SDS011;6243;51.244;6.774;2023-03-02T03:16:10;7.07;;;5.90;;
12356;SDS011;6243;51.244;6.774;2023-03-02T03:18:40;8.63;;;6.37;;
12356;SDS011;6243;51.244;6.774;2023-03-02T03:21:06;8.07;;;6.30;;
12356;SDS011;6243;51.244;6.774;2023-03-02T03:23:32;7.17;;;5.83;;
12356;SDS011;6243;51.244;6.774;2023-03-02T03:25:58;8.17;;;6.23;;
12356;SDS011;6243;51.244;6.774;2023-03-02T03:28:23;7.60;;;6.00;;
12356;SDS011;6243;51.244;6.774;2023-03-02T03:30:49;8.47;;;5.97;;
12356;SDS011;6243;51.244;6.774;2023-03-02T03:33:15;8.80;;;6.13;;
12356;SDS011;6243;51.244;6.774;2023-03-02T03:35:41;10.77;;;5.87;;
12356;SDS011;6243;51.244;6.774;2023-03-02T03:38:06;8.17;;;6.63;;
12356;SDS011;6243;51.244;6.774;2023-03-02T03:40:32;7.70;;;5.20;;
12356;SDS011;6243;51.244;6.774;2023-03-02T03:42:58;7.17;;;5.93;;
12356;SDS011;6243;51.244;6.774;2023-03-02T03:45:23;9.50;;;6.10;;
12356;SDS011;6243;51.244;6.774;2023-03-02T03:47:49;8.50;;;5.77;;
12356;SDS011;6243;51.244;6.774;2023-03-02T03:50:16;7.90;;;4.97;;
12356;SDS011;6243;51.244;6.774;2023-03-02T03:52:41;7.67;;;5.80;;
12356;SDS011;6243;51.244;6.774;2023-03-02T03:55:07;8.50;;;6.10;;
12356;SDS011;6243;51.244;6.774;2023-03-02T03:57:33;7.00;;;5.37;;
12356;SDS011;6243;51.244;6.774;2023-03-02T03:59:58;7.33;;;5.60;;
12356;SDS011;6243;51.244;6.774;2023-03-02T04:02:24;7.37;;;5.30;;
12356;SDS011;6243;51.244;6.774;2023-03-02T04:04:49;6.83;;;5.00;;
12356;SDS011;6243;51.244;6.774;2023-03-02T04:07:16;8.13;;;5.70;;
12356;SDS011;6243;51.244;6.774;2023-03-02T04:09:42;9.23;;;6.23;;
12356;SDS011;6243;51.244;6.774;2023-03-02T04:12:08;7.90;;;5.60;;
12356;SDS011;6243;51.244;6.774;2023-03-02T04:14:34;6.80;;;5.23;;
12356;SDS011;6243;51.244;6.774;2023-03-02T04:17:00;6.70;;;5.27;;
12356;SDS011;6243;51.244;6.774;2023-03-02T04:19:26;6.03;;;5.03;;
12356;SDS011;6243;51.244;6.774;2023-03-02T04:21:51;7.80;;;5.70;;
12356;SDS011;6243;51.244;6.774;2023-03-02T04:24:20;6.60;;;5.50;;
12356;SDS011;6243;51.244;6.774;2023-03-02T04:26:47;7.43;;;5.40;;
12356;SDS011;6243;51.244;6.774;2023-03-02T04:29:14;7.10;;;5.23;;
12356;SDS011;6243;51.244;6.774;2023-03-02T04:31:40;6.53;;;5.00;;
12356;SDS011;6243;51.244;6.774;2023-03-02T04:34:06;8.73;;;6.20;;
12356;SDS011;6243;51.244;6.774;2023-03-02T04:36:32;7.93;;;5.20;;
12356;SDS011;6243;51.244;6.774;2023-03-02T04:39:02;6.23;;;5.03;;
12356;SDS011;6243;51.244;6.774;2023-03-02T04:41:30;7.23;;;5.70;;
12356;SDS011;6243;51.244;6.774;2023-03-02T04:43:56;7.67;;;5.53;;
12356;SDS011;6243;51.244;6.774;2023-03-02T04:46:22;8.07;;;5.50;;
12356;SDS011;6243;51.244;6.774;2023-03-02T04:48:50;7.50;;;5.57;;
12356;SDS011;6243;51.244;6.774;2023-03-02T04:51:16;8.73;;;5.73;;
12356;SDS011;6243;51.244;6.774;2023-03-02T04:53:43;8.33;;;6.00;;
12356;SDS011;6243;51.244;6.774;2023-03-02T04:56:09;6.70;;;5.27;;
12356;SDS011;6243;51.244;6.774;2023-03-02T04:58:36;8.97;;;5.23;;
12356;SDS011;6243;51.244;6.774;2023-03-02T05:01:01;7.47;;;5.77;;
12356;SDS011;6243;51.244;6.774;2023-03-02T05:03:27;9.13;;;5.57;;
12356;SDS011;6243;51.244;6.774;2023-03-02T05:05:52;7.27;;;5.47;;
12356;SDS011;6243;51.244;6.774;2023-03-02T05:08:18;8.63;;;5.70;;
12356;SDS011;6243;51.244;6.774;2023-03-02T05:10:43;10.57;;;5.43;;
12356;SDS011;6243;51.244;6.774;2023-03-02T05:13:09;8.30;;;5.27;;
12356;SDS011;6243;51.244;6.774;2023-03-02T05:15:38;6.97;;;5.30;;
12356;SDS011;6243;51.244;6.774;2023-03-02T05:18:05;6.07;;;4.73;;
12356;SDS011;6243;51.244;6.774;2023-03-02T05:20:32;8.60;;;5.30;;
12356;SDS011;6243;51.244;6.774;2023-03-02T05:22:59;6.80;;;5.67;;
12356;SDS011;6243;51.244;6.774;2023-03-02T05:25:27;7.13;;;5.20;;
12356;SDS011;6243;51.244;6.774;2023-03-02T05:27:54;8.40;;;5.33;;
12356;SDS011;6243;51.244;6.774;2023-03-02T05:30:20;7.70;;;5.60;;
12356;SDS011;6243;51.244;6.774;2023-03-02T05:32:48;6.67;;;5.37;;
12356;SDS011;6243;51.244;6.774;2023-03-02T05:35:14;9.37;;;5.70;;
12356;SDS011;6243;51.244;6.774;2023-03-02T05:37:39;6.93;;;5.50;;
12356;SDS011;6243;51.244;6.774;2023-03-02T05:40:06;7.33;;;5.33;;
12356;SDS011;6243;51.244;6.774;2023-03-02T05:42:32;7.57;;;5.57;;
12356;SDS011;6243;51.244;6.774;2023-03-02T05:44:58;7.60;;;5.70;;
12356;SDS011;6243;51.244;6.774;2023-03-02T05:47:23;7.13;;;5.70;;
12356;SDS011;6243;51.244;6.774;2023-03-02T05:49:50;7.70;;;5.53;;
12356;SDS011;6243;51.244;6.774;2023-03-02T05:52:15;7.93;;;5.40;;
12356;SDS011;6243;51.244;6.774;2023-03-02T05:54:41;7.40;;;5.37;;
12356;SDS011;6243;51.244;6.774;2023-03-02T05:57:06;7.37;;;5.27;;
12356;SDS011;6243;51.244;6.774;2023-03-02T05:59:32;7.37;;;6.00;;
12356;SDS011;6243;51.244;6.774;2023-03-02T06:01:57;6.30;;;4.90;;
12356;SDS011;6243;51.244;6.774;2023-03-02T06:04:23;7.27;;;5.60;;
12356;SDS011;6243;51.244;6.774;2023-03-02T06:06:50;8.30;;;5.10;;
12356;SDS011;6243;51.244;6.774;2023-03-02T06:09:16;6.57;;;5.37;;
12356;SDS011;6243;51.244;6.774;2023-03-02T06:11:41;7.73;;;5.47;;
12356;SDS011;6243;51.244;6.774;2023-03-02T06:14:07;6.20;;;4.73;;
12356;SDS011;6243;51.244;6.774;2023-03-02T06:16:32;9.27;;;6.03;;
12356;SDS011;6243;51.244;6.774;2023-03-02T06:18:58;8.97;;;5.43;;
12356;SDS011;6243;51.244;6.774;2023-03-02T06:21:23;9.33;;;5.43;;
12356;SDS011;6243;51.244;6.774;2023-03-02T06:23:50;6.10;;;4.60;;
12356;SDS011;6243;51.244;6.774;2023-03-02T06:26:16;7.57;;;5.37;;
12356;SDS011;6243;51.244;6.774;2023-03-02T06:28:41;6.77;;;5.27;;
12356;SDS011;6243;51.244;6.774;2023-03-02T06:31:07;7.77;;;5.47;;
12356;SDS011;6243;51.244;6.774;2023-03-02T06:33:32;6.87;;;5.00;;
12356;SDS011;6243;51.244;6.774;2023-03-02T06:35:58;8.30;;;5.53;;
12356;SDS011;6243;51.244;6.774;2023-03-02T06:38:23;8.73;;;5.73;;
12356;SDS011;6243;51.244;6.774;2023-03-02T06:40:50;7.17;;;5.17;;
12356;SDS011;6243;51.244;6.774;2023-03-02T06:43:15;8.47;;;5.73;;
12356;SDS011;6243;51.244;6.774;2023-03-02T06:45:41;9.93;;;6.47;;
12356;SDS011;6243;51.244;6.774;2023-03-02T06:48:07;7.70;;;5.20;;
12356;SDS011;6243;51.244;6.774;2023-03-02T06:50:32;8.57;;;5.63;;
12356;SDS011;6243;51.244;6.774;2023-03-02T06:52:58;7.00;;;5.10;;
12356;SDS011;6243;51.244;6.774;2023-03-02T06:55:24;9.07;;;5.93;;
12356;SDS011;6243;51.244;6.774;2023-03-02T06:57:52;7.03;;;5.30;;
12356;SDS011;6243;51.244;6.774;2023-03-02T07:00:18;8.33;;;5.47;;
12356;SDS011;6243;51.244;6.774;2023-03-02T07:02:44;8.60;;;6.20;;
12356;SDS011;6243;51.244;6.774;2023-03-02T07:05:10;7.37;;;5.20;;
12356;SDS011;6243;51.244;6.774;2023-03-02T07:07:37;8.73;;;6.03;;
12356;SDS011;6243;51.244;6.774;2023-03-02T07:10:03;7.07;;;5.27;;
12356;SDS011;6243;51.244;6.774;2023-03-02T07:12:29;7.97;;;5.37;;
12356;SDS011;6243;51.244;6.774;2023-03-02T07:14:56;7.63;;;5.00;;
12356;SDS011;6243;51.244;6.774;2023-03-02T07:17:21;7.47;;;5.93;;
12356;SDS011;6243;51.244;6.774;2023-03-02T07:19:47;9.23;;;5.47;;
12356;SDS011;6243;51.244;6.774;2023-03-02T07:22:12;10.03;;;5.63;;
12356;SDS011;6243;51.244;6.774;2023-03-02T07:24:38;8.10;;;5.87;;
12356;SDS011;6243;51.244;6.774;2023-03-02T07:27:03;7.20;;;5.30;;
12356;SDS011;6243;51.244;6.774;2023-03-02T07:29:29;7.60;;;5.33;;
12356;SDS011;6243;51.244;6.774;2023-03-02T07:31:56;8.10;;;5.97;;
12356;SDS011;6243;51.244;6.774;2023-03-02T07:34:22;7.17;;;5.50;;
12356;SDS011;6243;51.244;6.774;2023-03-02T07:36:48;8.93;;;5.47;;
12356;SDS011;6243;51.244;6.774;2023-03-02T07:39:13;7.83;;;5.73;;
12356;SDS011;6243;51.244;6.774;2023-03-02T07:41:39;8.70;;;5.40;;
12356;SDS011;6243;51.244;6.774;2023-03-02T07:44:04;7.63;;;5.33;;
12356;SDS011;6243;51.244;6.774;2023-03-02T07:46:30;8.33;;;5.47;;
12356;SDS011;6243;51.244;6.774;2023-03-02T07:48:57;7.47;;;5.73;;
12356;SDS011;6243;51.244;6.774;2023-03-02T07:51:22;7.57;;;5.80;;
12356;SDS011;6243;51.244;6.774;2023-03-02T07:53:48;8.77;;;6.27;;
12356;SDS011;6243;51.244;6.774;2023-03-02T07:56:13;8.37;;;5.60;;
12356;SDS011;6243;51.244;6.774;2023-03-02T07:58:39;6.37;;;5.13;;
12356;SDS011;6243;51.244;6.774;2023-03-02T08:01:04;6.63;;;5.93;;
12356;SDS011;6243;51.244;6.774;2023-03-02T08:03:29;8.00;;;5.80;;
12356;SDS011;6243;51.244;6.774;2023-03-02T08:05:56;9.00;;;5.80;;
12356;SDS011;6243;51.244;6.774;2023-03-02T08:08:22;8.30;;;5.50;;
12356;SDS011;6243;51.244;6.774;2023-03-02T08:10:48;8.23;;;5.97;;
12356;SDS011;6243;51.244;6.774;2023-03-02T08:13:13;8.53;;;5.83;;
12356;SDS011;6243;51.244;6.774;2023-03-02T08:15:39;8.17;;;5.33;;
12356;SDS011;6243;51.244;6.774;2023-03-02T08:18:04;7.80;;;5.33;;
12356;SDS011;6243;51.244;6.774;2023-03-02T08:20:30;9.20;;;6.10;;
12356;SDS011;6243;51.244;6.774;2023-03-02T08:22:57;8.47;;;6.03;;
12356;SDS011;6243;51.244;6.774;2023-03-02T08:25:22;8.90;;;6.23;;
12356;SDS011;6243;51.244;6.774;2023-03-02T08:27:48;7.90;;;5.80;;
12356;SDS011;6243;51.244;6.774;2023-03-02T08:30:13;7.83;;;5.77;;
12356;SDS011;6243;51.244;6.774;2023-03-02T08:32:39;12.17;;;6.27;;
12356;SDS011;6243;51.244;6.774;2023-03-02T08:35:05;7.93;;;5.67;;
12356;SDS011;6243;51.244;6.774;2023-03-02T08:37:31;8.13;;;5.70;;
12356;SDS011;6243;51.244;6.774;2023-03-02T08:39:58;7.53;;;5.73;;
12356;SDS011;6243;51.244;6.774;2023-03-02T08:42:24;8.70;;;5.97;;
12356;SDS011;6243;51.244;6.774;2023-03-02T08:44:49;8.10;;;6.07;;
12356;SDS011;6243;51.244;6.774;2023-03-02T08:47:15;8.43;;;6.20;;
12356;SDS011;6243;51.244;6.774;2023-03-02T08:49:40;8.60;;;5.93;;
12356;SDS011;6243;51.244;6.774;2023-03-02T08:52:06;10.17;;;6.23;;
12356;SDS011;6243;51.244;6.774;2023-03-02T08:54:31;8.37;;;6.37;;
12356;SDS011;6243;51.244;6.774;2023-03-02T08:56:58;7.93;;;6.40;;
12356;SDS011;6243;51.244;6.774;2023-03-02T08:59:25;8.83;;;5.63;;
12356;SDS011;6243;51.244;6.774;2023-03-02T09:01:50;7.00;;;5.67;;
12356;SDS011;6243;51.244;6.774;2023-03-02T09:04:16;8.43;;;6.47;;
12356;SDS011;6243;51.244;6.774;2023-03-02T09:06:42;9.27;;;6.27;;
12356;SDS011;6243;51.244;6.774;2023-03-02T09:09:09;8.70;;;5.83;;
12356;SDS011;6243;51.244;6.774;2023-03-02T09:11:37;7.83;;;6.20;;
12356;SDS011;6243;51.244;6.774;2023-03-02T09:14:04;9.30;;;6.00;;
12356;SDS011;6243;51.244;6.774;2023-03-02T09:16:30;8.10;;;6.10;;
12356;SDS011;6243;51.244;6.774;2023-03-02T09:18:56;9.07;;;6.10;;
12356;SDS011;6243;51.244;6.774;2023-03-02T09:21:21;8.80;;;6.13;;
12356;SDS011;6243;51.244;6.774;2023-03-02T09:23:47;8.50;;;6.60;;
12356;SDS011;6243;51.244;6.774;2023-03-02T09:26:13;8.47;;;6.40;;
12356;SDS011;6243;51.244;6.774;2023-03-02T09:28:38;9.17;;;6.50;;
12356;SDS011;6243;51.244;6.774;2023-03-02T09:31:05;9.20;;;6.27;;
12356;SDS011;6243;51.244;6.774;2023-03-02T09:33:32;8.37;;;6.47;;
12356;SDS011;6243;51.244;6.774;2023-03-02T09:35:58;7.60;;;5.83;;
12356;SDS011;6243;51.244;6.774;2023-03-02T09:38:24;12.83;;;6.37;;
12356;SDS011;6243;51.244;6.774;2023-03-02T09:40:55;8.70;;;6.27;;
12356;SDS011;6243;51.244;6.774;2023-03-02T09:43:38;8.00;;;5.93;;
12356;SDS011;6243;51.244;6.774;2023-03-02T09:46:15;9.03;;;5.80;;
12356;SDS011;6243;51.244;6.774;2023-03-02T09:48:46;8.43;;;6.30;;
12356;SDS011;6243;51.244;6.774;2023-03-02T09:51:25;8.07;;;5.70;;
12356;SDS011;6243;51.244;6.774;2023-03-02T09:53:57;8.67;;;6.13;;
12356;SDS011;6243;51.244;6.774;2023-03-02T09:56:27;7.37;;;6.07;;
12356;SDS011;6243;51.244;6.774;2023-03-02T09:58:56;7.97;;;6.03;;
12356;SDS011;6243;51.244;6.774;2023-03-02T10:01:29;9.60;;;7.07;;
12356;SDS011;6243;51.244;6.774;2023-03-02T10:04:02;9.30;;;5.80;;
12356;SDS011;6243;51.244;6.774;2023-03-02T10:06:36;9.97;;;6.77;;
12356;SDS011;6243;51.244;6.774;2023-03-02T10:09:02;6.83;;;5.93;;
12356;SDS011;6243;51.244;6.774;2023-03-02T10:11:29;9.37;;;6.43;;
12356;SDS011;6243;51.244;6.774;2023-03-02T10:14:04;7.97;;;6.23;;
12356;SDS011;6243;51.244;6.774;2023-03-02T10:16:39;8.90;;;6.13;;
12356;SDS011;6243;51.244;6.774;2023-03-02T10:19:12;8.87;;;6.10;;
12356;SDS011;6243;51.244;6.774;2023-03-02T10:21:44;9.47;;;6.80;;
12356;SDS011;6243;51.244;6.774;2023-03-02T10:24:14;8.13;;;6.47;;
12356;SDS011;6243;51.244;6.774;2023-03-02T10:26:45;8.50;;;6.47;;
12356;SDS011;6243;51.244;6.774;2023-03-02T10:32:15;7.53;;;6.07;;
12356;SDS011;6243;51.244;6.774;2023-03-02T10:34:44;9.37;;;6.40;;
12356;SDS011;6243;51.244;6.774;2023-03-02T10:37:11;7.17;;;5.90;;
12356;SDS011;6243;51.244;6.774;2023-03-02T10:39:39;8.53;;;6.37;;
12356;SDS011;6243;51.244;6.774;2023-03-02T10:42:05;8.07;;;5.90;;
12356;SDS011;6243;51.244;6.774;2023-03-02T10:44:35;7.70;;;6.23;;
12356;SDS011;6243;51.244;6.774;2023-03-02T10:47:04;7.30;;;5.93;;
12356;SDS011;6243;51.244;6.774;2023-03-02T10:49:33;8.67;;;6.13;;
12356;SDS011;6243;51.244;6.774;2023-03-02T10:52:00;9.33;;;6.53;;
12356;SDS011;6243;51.244;6.774;2023-03-02T10:54:28;9.13;;;6.60;;
12356;SDS011;6243;51.244;6.774;2023-03-02T10:56:56;8.50;;;6.03;;
12356;SDS011;6243;51.244;6.774;2023-03-02T10:59:32;12.07;;;6.40;;
12356;SDS011;6243;51.244;6.774;2023-03-02T11:02:11;8.47;;;5.63;;
12356;SDS011;6243;51.244;6.774;2023-03-02T11:04:40;8.37;;;6.37;;
12356;SDS011;6243;51.244;6.774;2023-03-02T11:07:06;8.17;;;6.07;;
12356;SDS011;6243;51.244;6.774;2023-03-02T11:09:32;9.90;;;6.87;;
12356;SDS011;6243;51.244;6.774;2023-03-02T11:11:58;7.73;;;5.83;;
12356;SDS011;6243;51.244;6.774;2023-03-02T11:14:23;8.73;;;6.37;;
12356;SDS011;6243;51.244;6.774;2023-03-02T11:16:50;7.93;;;6.03;;
12356;SDS011;6243;51.244;6.774;2023-03-02T11:19:16;8.23;;;6.37;;
12356;SDS011;6243;51.244;6.774;2023-03-02T11:21:52;6.63;;;5.90;;
12356;SDS011;6243;51.244;6.774;2023-03-02T11:24:23;7.37;;;5.87;;
12356;SDS011;6243;51.244;6.774;2023-03-02T11:26:54;7.03;;;5.63;;
12356;SDS011;6243;51.244;6.774;2023-03-02T11:29:25;10.40;;;6.20;;
12356;SDS011;6243;51.244;6.774;2023-03-02T11:31:57;7.10;;;5.67;;
12356;SDS011;6243;51.244;6.774;2023-03-02T11:34:29;7.53;;;5.97;;
12356;SDS011;6243;51.244;6.774;2023-03-02T11:39:54;8.03;;;6.13;;
12356;SDS011;6243;51.244;6.774;2023-03-02T11:42:29;9.63;;;5.83;;
12356;SDS011;6243;51.244;6.774;2023-03-02T11:44:58;7.90;;;5.80;;
12356;SDS011;6243;51.244;6.774;2023-03-02T11:47:26;8.77;;;5.67;;
12356;SDS011;6243;51.244;6.774;2023-03-02T11:49:56;7.37;;;5.67;;
12356;SDS011;6243;51.244;6.774;2023-03-02T11:52:27;8.10;;;6.03;;
12356;SDS011;6243;51.244;6.774;2023-03-02T11:54:58;8.17;;;6.17;;
12356;SDS011;6243;51.244;6.774;2023-03-02T11:57:28;8.20;;;6.03;;
12356;SDS011;6243;51.244;6.774;2023-03-02T11:59:58;7.13;;;5.37;;
12356;SDS011;6243;51.244;6.774;2023-03-02T12:02:24;6.77;;;5.30;;
12356;SDS011;6243;51.244;6.774;2023-03-02T12:05:00;6.10;;;4.97;;
12356;SDS011;6243;51.244;6.774;2023-03-02T12:07:28;9.00;;;5.87;;
12356;SDS011;6243;51.244;6.774;2023-03-02T12:10:01;5.80;;;5.20;;
12356;SDS011;6243;51.244;6.774;2023-03-02T12:12:34;8.53;;;6.20;;
12356;SDS011;6243;51.244;6.774;2023-03-02T12:15:22;7.50;;;6.20;;
12356;SDS011;6243;51.244;6.774;2023-03-02T12:17:50;12.03;;;5.60;;
12356;SDS011;6243;51.244;6.774;2023-03-02T12:20:23;6.30;;;5.63;;
12356;SDS011;6243;51.244;6.774;2023-03-02T12:22:52;8.67;;;6.20;;
12356;SDS011;6243;51.244;6.774;2023-03-02T12:25:35;9.53;;;5.73;;
12356;SDS011;6243;51.244;6.774;2023-03-02T12:28:04;8.17;;;5.63;;
12356;SDS011;6243;51.244;6.774;2023-03-02T12:30:30;7.37;;;5.27;;
12356;SDS011;6243;51.244;6.774;2023-03-02T12:33:00;8.00;;;4.97;;
12356;SDS011;6243;51.244;6.774;2023-03-02T12:35:29;8.17;;;5.40;;
12356;SDS011;6243;51.244;6.774;2023-03-02T12:37:57;7.23;;;4.97;;
12356;SDS011;6243;51.244;6.774;2023-03-02T12:40:39;6.77;;;5.00;;
12356;SDS011;6243;51.244;6.774;2023-03-02T12:43:20;6.70;;;4.83;;
12356;SDS011;6243;51.244;6.774;2023-03-02T12:45:58;6.20;;;5.03;;
12356;SDS011;6243;51.244;6.774;2023-03-02T12:48:41;7.00;;;4.97;;
12356;SDS011;6243;51.244;6.774;2023-03-02T12:51:11;5.90;;;4.80;;
12356;SDS011;6243;51.244;6.774;2023-03-02T12:53:43;5.57;;;4.67;;
12356;SDS011;6243;51.244;6.774;2023-03-02T12:56:09;6.67;;;5.17;;
12356;SDS011;6243;51.244;6.774;2023-03-02T12:58:47;5.53;;;4.77;;
12356;SDS011;6243;51.244;6.774;2023-03-02T13:01:16;6.97;;;4.97;;
12356;SDS011;6243;51.244;6.774;2023-03-02T13:03:46;8.33;;;4.93;;
12356;SDS011;6243;51.244;6.774;2023-03-02T13:06:13;6.43;;;4.83;;
12356;SDS011;6243;51.244;6.774;2023-03-02T13:08:42;6.17;;;5.47;;
12356;SDS011;6243;51.244;6.774;2023-03-02T13:11:10;6.23;;;4.90;;
12356;SDS011;6243;51.244;6.774;2023-03-02T13:13:37;6.67;;;4.67;;
12356;SDS011;6243;51.244;6.774;2023-03-02T13:16:05;7.80;;;4.93;;
12356;SDS011;6243;51.244;6.774;2023-03-02T13:18:32;5.87;;;4.90;;
12356;SDS011;6243;51.244;6.774;2023-03-02T13:21:00;6.27;;;4.63;;
12356;SDS011;6243;51.244;6.774;2023-03-02T13:23:29;6.20;;;4.77;;
12356;SDS011;6243;51.244;6.774;2023-03-02T13:25:58;5.20;;;4.40;;
12356;SDS011;6243;51.244;6.774;2023-03-02T13:28:26;6.03;;;4.60;;
12356;SDS011;6243;51.244;6.774;2023-03-02T13:30:56;5.60;;;4.40;;
12356;SDS011;6243;51.244;6.774;2023-03-02T13:33:22;5.30;;;4.60;;
12356;SDS011;6243;51.244;6.774;2023-03-02T13:35:49;6.73;;;5.07;;
12356;SDS011;6243;51.244;6.774;2023-03-02T13:38:16;7.53;;;4.67;;
12356;SDS011;6243;51.244;6.774;2023-03-02T13:40:43;5.83;;;4.67;;
12356;SDS011;6243;51.244;6.774;2023-03-02T13:43:21;6.53;;;4.67;;
12356;SDS011;6243;51.244;6.774;2023-03-02T13:45:54;6.03;;;4.50;;
12356;SDS011;6243;51.244;6.774;2023-03-02T13:48:21;6.23;;;4.50;;
12356;SDS011;6243;51.244;6.774;2023-03-02T13:50:50;5.67;;;4.57;;
12356;SDS011;6243;51.244;6.774;2023-03-02T13:53:20;7.30;;;5.17;;
12356;SDS011;6243;51.244;6.774;2023-03-02T13:55:46;6.63;;;4.70;;
12356;SDS011;6243;51.244;6.774;2023-03-02T13:58:12;6.73;;;4.77;;
12356;SDS011;6243;51.244;6.774;2023-03-02T14:00:42;6.57;;;4.27;;
12356;SDS011;6243;51.244;6.774;2023-03-02T14:03:09;5.00;;;4.50;;
12356;SDS011;6243;51.244;6.774;2023-03-02T14:05:44;6.57;;;4.30;;
12356;SDS011;6243;51.244;6.774;2023-03-02T14:08:10;7.07;;;4.47;;
12356;SDS011;6243;51.244;6.774;2023-03-02T14:10:35;6.43;;;4.13;;
12356;SDS011;6243;51.244;6.774;2023-03-02T14:13:02;5.43;;;4.20;;
12356;SDS011;6243;51.244;6.774;2023-03-02T14:15:31;6.30;;;4.20;;
12356;SDS011;6243;51.244;6.774;2023-03-02T14:17:59;5.00;;;4.50;;
12356;SDS011;6243;51.244;6.774;2023-03-02T14:20:25;6.30;;;4.50;;
12356;SDS011;6243;51.244;6.774;2023-03-02T14:22:50;7.77;;;4.40;;
12356;SDS011;6243;51.244;6.774;2023-03-02T14:25:16;6.77;;;4.50;;
12356;SDS011;6243;51.244;6.774;2023-03-02T14:27:41;5.43;;;4.13;;
12356;SDS011;6243;51.244;6.774;2023-03-02T14:30:11;8.10;;;4.93;;
12356;SDS011;6243;51.244;6.774;2023-03-02T14:32:39;7.13;;;4.47;;
12356;SDS011;6243;51.244;6.774;2023-03-02T14:35:07;5.43;;;4.43;;
12356;SDS011;6243;51.244;6.774;2023-03-02T14:37:34;5.03;;;4.10;;
12356;SDS011;6243;51.244;6.774;2023-03-02T14:39:59;5.83;;;3.93;;
12356;SDS011;6243;51.244;6.774;2023-03-02T14:42:25;7.07;;;4.23;;
12356;SDS011;6243;51.244;6.774;2023-03-02T14:44:50;5.50;;;3.77;;
12356;SDS011;6243;51.244;6.774;2023-03-02T14:47:16;7.50;;;4.47;;
12356;SDS011;6243;51.244;6.774;2023-03-02T14:49:42;5.40;;;4.30;;
12356;SDS011;6243;51.244;6.774;2023-03-02T14:52:11;4.67;;;3.83;;
12356;SDS011;6243;51.244;6.774;2023-03-02T14:54:41;5.23;;;3.87;;
12356;SDS011;6243;51.244;6.774;2023-03-02T14:57:12;5.17;;;3.97;;
12356;SDS011;6243;51.244;6.774;2023-03-02T14:59:41;6.77;;;3.77;;
12356;SDS011;6243;51.244;6.774;2023-03-02T15:02:08;4.43;;;3.50;;
12356;SDS011;6243;51.244;6.774;2023-03-02T15:04:34;4.87;;;3.90;;
12356;SDS011;6243;51.244;6.774;2023-03-02T15:06:59;5.70;;;3.70;;
12356;SDS011;6243;51.244;6.774;2023-03-02T15:09:26;5.00;;;3.67;;
12356;SDS011;6243;51.244;6.774;2023-03-02T15:11:52;5.77;;;3.93;;
12356;SDS011;6243;51.244;6.774;2023-03-02T15:14:17;5.07;;;3.90;;